createdAt,value
2018-06-16T00:00:55.313Z,59.35
2018-06-16T00:03:22.973Z,59.06
2018-06-16T00:05:50.592Z,58.60
2018-06-16T00:08:18.157Z,58.81
2018-06-16T00:10:46.022Z,59.72
2018-06-16T00:13:13.636Z,59.12
2018-06-16T00:15:41.242Z,59.72
2018-06-16T00:18:08.858Z,59.97
2018-06-16T00:20:36.465Z,59.90
2018-06-16T00:23:04.145Z,60.25
2018-06-16T00:25:31.816Z,60.27
2018-06-16T00:27:59.420Z,60.40
2018-06-16T00:30:27.066Z,60.08
2018-06-16T00:32:54.705Z,60.30
2018-06-16T00:35:22.877Z,60.34
2018-06-16T00:37:50.559Z,60.16
2018-06-16T00:40:18.169Z,60.77
2018-06-16T00:42:46.654Z,61.06
2018-06-16T00:45:14.344Z,60.68
2018-06-16T00:47:42.221Z,60.33
2018-06-16T00:50:09.788Z,60.29
2018-06-16T00:52:37.373Z,59.83
2018-06-16T00:55:05.329Z,60.01
2018-06-16T00:57:44.216Z,59.86
2018-06-16T01:00:11.820Z,60.34
2018-06-16T01:02:39.942Z,59.81
2018-06-16T01:05:07.633Z,59.65
2018-06-16T01:07:36.381Z,60.23
2018-06-16T01:10:04.308Z,59.98
2018-06-16T01:12:31.899Z,60.07
2018-06-16T01:14:59.483Z,59.67
2018-06-16T01:17:27.059Z,59.50
2018-06-16T01:19:54.762Z,59.40
2018-06-16T01:22:22.318Z,60.00
2018-06-16T01:24:49.958Z,59.91
2018-06-16T01:27:17.540Z,60.45
2018-06-16T01:29:45.170Z,61.04
2018-06-16T01:32:12.866Z,61.36
2018-06-16T01:34:40.496Z,61.21
2018-06-16T01:37:08.148Z,61.52
2018-06-16T01:39:36.056Z,61.80
2018-06-16T01:42:03.720Z,62.48
2018-06-16T01:44:31.328Z,61.78
2018-06-16T01:46:58.941Z,61.79
2018-06-16T01:49:26.549Z,62.17
2018-06-16T01:51:54.141Z,61.41
2018-06-16T01:54:21.765Z,61.62
2018-06-16T01:56:49.358Z,62.17
2018-06-16T01:59:16.954Z,61.79
2018-06-16T02:01:44.528Z,62.39
2018-06-16T02:04:12.161Z,62.05
2018-06-16T02:06:40.285Z,61.61
2018-06-16T02:09:09.941Z,61.84
2018-06-16T02:11:37.861Z,62.14
2018-06-16T02:14:05.571Z,61.95
2018-06-16T02:16:33.211Z,61.86
2018-06-16T02:19:00.809Z,62.45
2018-06-16T02:21:28.397Z,62.33
2018-06-16T02:23:56.007Z,62.39
2018-06-16T02:26:23.568Z,62.41
2018-06-16T02:28:51.162Z,62.80
2018-06-16T02:31:18.758Z,62.87
2018-06-16T02:33:46.331Z,63.65
2018-06-16T02:36:14.017Z,63.57
2018-06-16T02:38:41.686Z,63.87
2018-06-16T02:41:09.378Z,63.82
2018-06-16T02:43:36.977Z,64.33
2018-06-16T02:46:04.640Z,63.76
2018-06-16T02:48:32.253Z,63.77
2018-06-16T02:50:59.846Z,64.08
2018-06-16T02:53:27.411Z,64.12
2018-06-16T02:55:55.040Z,63.89
2018-06-16T02:58:22.701Z,64.36
2018-06-16T03:00:50.285Z,64.04
2018-06-16T03:03:17.957Z,64.19
2018-06-16T03:05:45.819Z,64.67
2018-06-16T03:08:13.345Z,64.33
2018-06-16T03:10:40.973Z,64.25
2018-06-16T03:13:08.641Z,64.43
2018-06-16T03:15:36.171Z,63.29
2018-06-16T03:18:03.993Z,63.67
2018-06-16T03:20:38.564Z,63.33
2018-06-16T03:23:06.288Z,62.68
2018-06-16T03:25:34.378Z,63.06
2018-06-16T03:28:01.997Z,63.32
2018-06-16T03:30:29.710Z,63.47
2018-06-16T03:32:57.449Z,63.61
2018-06-16T03:35:25.058Z,63.60
2018-06-16T03:37:52.671Z,62.63
2018-06-16T03:40:20.333Z,62.39
2018-06-16T03:42:47.933Z,62.45
2018-06-16T03:45:15.556Z,62.91
2018-06-16T03:47:43.229Z,62.94
2018-06-16T03:50:11.593Z,63.08
2018-06-16T03:52:39.511Z,62.81
2018-06-16T03:55:07.065Z,63.43
2018-06-16T03:57:34.761Z,62.97
2018-06-16T04:00:02.443Z,61.80
2018-06-16T04:02:30.157Z,61.43
2018-06-16T04:04:57.824Z,61.34
2018-06-16T04:07:25.459Z,61.83
2018-06-16T04:09:53.100Z,61.48
2018-06-16T04:12:21.176Z,62.21
2018-06-16T04:14:48.746Z,61.74
2018-06-16T04:17:18.712Z,62.11
2018-06-16T04:19:47.348Z,61.84
2018-06-16T04:22:14.987Z,62.00
2018-06-16T04:24:42.858Z,61.18
2018-06-16T04:27:10.437Z,61.13
2018-06-16T04:29:38.297Z,60.36
2018-06-16T04:32:06.067Z,60.51
2018-06-16T04:34:34.118Z,60.28
2018-06-16T04:37:01.909Z,59.61
2018-06-16T04:39:29.534Z,59.69
2018-06-16T04:41:57.212Z,59.91
2018-06-16T04:44:25.410Z,59.45
2018-06-16T04:46:53.014Z,58.85
2018-06-16T04:49:20.630Z,58.62
2018-06-16T04:51:48.361Z,59.15
2018-06-16T04:54:15.997Z,58.76
2018-06-16T04:56:43.658Z,58.82
2018-06-16T04:59:11.229Z,59.61
2018-06-16T05:01:38.897Z,58.75
2018-06-16T05:04:06.525Z,58.77
2018-06-16T05:06:34.155Z,57.99
2018-06-16T05:09:01.777Z,58.17
2018-06-16T05:11:29.426Z,57.76
2018-06-16T05:13:57.026Z,57.94
2018-06-16T05:16:24.638Z,57.36
2018-06-16T05:18:52.224Z,56.84
2018-06-16T05:21:19.800Z,56.88
2018-06-16T05:23:47.379Z,56.16
2018-06-16T05:26:14.948Z,56.33
2018-06-16T05:28:42.586Z,56.72
2018-06-16T05:31:10.174Z,55.99
2018-06-16T05:33:37.744Z,56.64
2018-06-16T05:36:05.385Z,56.39
2018-06-16T05:38:33.298Z,56.70
2018-06-16T05:41:00.965Z,55.88
2018-06-16T05:43:28.809Z,55.41
2018-06-16T05:45:56.359Z,55.58
2018-06-16T05:48:23.953Z,55.08
2018-06-16T05:50:51.621Z,54.92
2018-06-16T05:53:19.235Z,53.63
2018-06-16T05:55:46.814Z,53.08
2018-06-16T05:58:14.746Z,52.22
2018-06-16T06:00:42.343Z,52.64
2018-06-16T06:03:09.955Z,52.11
2018-06-16T06:05:37.636Z,51.49
2018-06-16T06:08:05.264Z,51.60
2018-06-16T06:10:32.898Z,50.76
2018-06-16T06:13:01.258Z,50.44
2018-06-16T06:15:28.876Z,49.66
2018-06-16T06:17:56.474Z,50.25
2018-06-16T06:20:24.090Z,50.44
2018-06-16T06:22:51.920Z,50.08
2018-06-16T06:25:19.581Z,49.91
2018-06-16T06:27:47.234Z,49.17
2018-06-16T06:30:14.886Z,47.85
2018-06-16T06:32:42.485Z,46.77
2018-06-16T06:35:10.164Z,46.94
2018-06-16T06:37:37.877Z,46.31
2018-06-16T06:40:05.871Z,46.96
2018-06-16T06:42:33.529Z,45.18
2018-06-16T06:45:01.409Z,45.07
2018-06-16T06:47:29.040Z,45.01
2018-06-16T06:49:56.607Z,43.26
2018-06-16T06:52:24.205Z,43.34
2018-06-16T06:54:52.191Z,43.30
2018-06-16T06:57:20.708Z,42.44
2018-06-16T06:59:48.381Z,41.98
2018-06-16T07:02:15.954Z,41.65
2018-06-16T07:04:43.525Z,41.68
2018-06-16T07:07:11.308Z,40.49
2018-06-16T07:09:38.990Z,40.35
2018-06-16T07:12:06.575Z,40.24
2018-06-16T07:14:34.167Z,40.03
2018-06-16T07:17:01.751Z,40.17
2018-06-16T07:19:29.323Z,39.44
2018-06-16T07:21:56.932Z,39.03
2018-06-16T07:24:24.531Z,39.38
2018-06-16T07:26:52.226Z,37.97
2018-06-16T07:29:19.860Z,38.33
2018-06-16T07:31:47.482Z,37.55
2018-06-16T07:34:15.066Z,37.21
2018-06-16T07:36:43.451Z,36.07
2018-06-16T07:39:11.069Z,36.41
2018-06-16T07:41:38.815Z,36.84
2018-06-16T07:44:06.473Z,37.28
2018-06-16T07:46:34.015Z,36.70
2018-06-16T07:49:01.840Z,36.79
2018-06-16T07:51:29.677Z,36.66
2018-06-16T07:53:57.313Z,37.09
2018-06-16T07:56:24.929Z,35.13
2018-06-16T07:58:52.519Z,35.28
2018-06-16T08:01:20.164Z,34.54
2018-06-16T08:03:47.818Z,33.91
2018-06-16T08:06:15.405Z,32.48
2018-06-16T08:08:43.098Z,32.83
2018-06-16T08:11:10.699Z,32.63
2018-06-16T08:13:38.321Z,33.58
2018-06-16T08:16:05.961Z,32.58
2018-06-16T08:18:34.087Z,32.90
2018-06-16T08:21:01.692Z,32.30
2018-06-16T08:23:29.277Z,32.95
2018-06-16T08:25:57.015Z,32.04
2018-06-16T08:28:24.626Z,32.35
2018-06-16T08:30:52.246Z,32.51
2018-06-16T08:33:19.878Z,32.84
2018-06-16T08:35:47.494Z,32.56
2018-06-16T08:38:15.068Z,32.68
2018-06-16T08:40:42.608Z,33.19
2018-06-16T08:43:10.247Z,32.18
2018-06-16T08:45:37.868Z,32.50
2018-06-16T08:48:05.527Z,33.18
2018-06-16T08:50:33.150Z,32.21
2018-06-16T08:53:00.789Z,32.47
2018-06-16T08:55:28.508Z,32.53
2018-06-16T08:57:56.195Z,31.42
2018-06-16T09:00:24.115Z,31.48
2018-06-16T09:02:51.901Z,32.23
2018-06-16T09:05:19.517Z,31.99
2018-06-16T09:07:47.317Z,32.01
2018-06-16T09:10:14.996Z,32.70
2018-06-16T09:12:42.561Z,30.50
2018-06-16T09:15:10.274Z,30.88
2018-06-16T09:17:37.928Z,29.80
2018-06-16T09:20:05.671Z,30.03
2018-06-16T09:22:33.397Z,31.32
2018-06-16T09:25:00.988Z,31.25
2018-06-16T09:27:28.768Z,31.57
2018-06-16T09:29:56.383Z,31.63
2018-06-16T09:32:24.394Z,31.54
2018-06-16T09:34:52.026Z,31.41
2018-06-16T09:37:19.792Z,31.74
2018-06-16T09:39:47.369Z,30.84
2018-06-16T09:42:14.965Z,31.34
2018-06-16T09:44:42.642Z,32.58
2018-06-16T09:47:10.487Z,31.12
2018-06-16T09:49:38.799Z,26.52
2018-06-16T09:52:06.448Z,27.18
2018-06-16T09:54:34.039Z,26.09
2018-06-16T09:57:01.665Z,25.51
2018-06-16T09:59:29.287Z,27.17
2018-06-16T10:01:56.922Z,29.07
2018-06-16T10:04:24.555Z,29.29
2018-06-16T10:06:52.160Z,29.65
2018-06-16T10:09:19.880Z,30.04
2018-06-16T10:11:47.469Z,25.64
2018-06-16T10:14:15.137Z,26.61
2018-06-16T10:16:42.742Z,25.22
2018-06-16T10:19:10.392Z,24.78
2018-06-16T10:21:38.052Z,27.01
2018-06-16T10:24:05.903Z,23.50
2018-06-16T10:26:33.562Z,21.43
2018-06-16T10:29:01.266Z,23.94
2018-06-16T10:31:28.910Z,21.99
2018-06-16T10:33:56.586Z,21.55
2018-06-16T10:36:24.322Z,20.82
2018-06-16T10:38:51.933Z,20.88
2018-06-16T10:41:19.630Z,21.05
2018-06-16T10:43:47.279Z,22.22
2018-06-16T10:46:14.893Z,20.74
2018-06-16T10:48:42.501Z,22.69
2018-06-16T10:51:10.149Z,25.13
2018-06-16T10:53:38.073Z,24.54
2018-06-16T10:56:05.702Z,23.66
2018-06-16T10:58:33.515Z,23.53
2018-06-16T11:01:01.175Z,21.69
2018-06-16T11:03:28.941Z,22.61
2018-06-16T11:05:56.548Z,22.90
2018-06-16T11:08:24.168Z,23.61
2018-06-16T11:10:51.787Z,22.79
2018-06-16T11:13:19.794Z,23.15
2018-06-16T11:15:47.429Z,23.81
2018-06-16T11:18:15.063Z,22.45
2018-06-16T11:20:42.746Z,23.65
2018-06-16T11:23:10.470Z,23.30
2018-06-16T11:25:38.088Z,23.87
2018-06-16T11:28:05.747Z,22.59
2018-06-16T11:30:33.404Z,22.23
2018-06-16T11:33:01.000Z,23.67
2018-06-16T11:35:28.613Z,24.47
2018-06-16T11:37:56.222Z,25.73
2018-06-16T11:40:23.949Z,24.02
2018-06-16T11:42:51.603Z,24.90
2018-06-16T11:45:19.253Z,23.99
2018-06-16T11:47:46.891Z,23.85
2018-06-16T11:50:14.467Z,23.90
2018-06-16T11:52:42.097Z,24.81
2018-06-16T11:55:09.780Z,23.46
2018-06-16T11:57:37.425Z,24.05
2018-06-16T12:00:05.087Z,23.96
2018-06-16T12:02:32.751Z,25.36
2018-06-16T12:05:00.393Z,25.35
2018-06-16T12:07:28.114Z,25.34
2018-06-16T12:09:55.784Z,24.70
2018-06-16T12:12:23.386Z,23.90
2018-06-16T12:14:51.110Z,24.34
2018-06-16T12:17:18.773Z,24.47
2018-06-16T12:19:46.474Z,24.31
2018-06-16T12:22:14.172Z,23.26
2018-06-16T12:24:48.586Z,23.93
2018-06-16T12:27:16.250Z,23.62
2018-06-16T12:29:43.996Z,22.87
2018-06-16T12:32:11.603Z,24.03
2018-06-16T12:34:39.242Z,23.57
2018-06-16T12:37:06.904Z,22.14
2018-06-16T12:39:34.554Z,22.89
2018-06-16T12:42:02.188Z,22.80
2018-06-16T12:44:29.856Z,21.63
2018-06-16T12:46:57.976Z,22.48
2018-06-16T12:49:26.910Z,21.64
2018-06-16T12:51:54.821Z,20.73
2018-06-16T12:54:22.478Z,21.78
2018-06-16T12:56:50.196Z,19.50
2018-06-16T12:59:17.760Z,18.94
2018-06-16T13:01:45.398Z,17.99
2018-06-16T13:04:13.084Z,16.05
2018-06-16T13:06:40.773Z,12.25
2018-06-16T13:09:08.470Z,11.37
2018-06-16T13:11:36.140Z,11.91
2018-06-16T13:14:03.903Z,11.80
2018-06-16T13:16:31.716Z,12.78
2018-06-16T13:18:59.864Z,12.03
2018-06-16T13:21:27.745Z,12.20
2018-06-16T13:23:55.361Z,12.30
2018-06-16T13:26:22.950Z,12.67
2018-06-16T13:28:50.617Z,12.94
2018-06-16T13:31:18.236Z,12.97
2018-06-16T13:33:45.873Z,14.79
2018-06-16T13:36:13.490Z,14.47
2018-06-16T13:38:41.169Z,15.60
2018-06-16T13:41:08.790Z,15.19
2018-06-16T13:43:36.468Z,17.96
2018-06-16T13:46:04.226Z,19.26
2018-06-16T13:48:31.842Z,19.25
2018-06-16T13:50:59.475Z,20.42
2018-06-16T13:53:27.088Z,21.19
2018-06-16T13:55:55.256Z,20.58
2018-06-16T13:58:22.964Z,20.40
2018-06-16T14:00:50.534Z,20.29
2018-06-16T14:03:18.146Z,21.19
2018-06-16T14:05:45.766Z,20.61
2018-06-16T14:08:13.454Z,20.88
2018-06-16T14:10:41.097Z,20.16
2018-06-16T14:13:08.734Z,19.55
2018-06-16T14:15:37.353Z,18.84
2018-06-16T14:18:05.481Z,19.49
2018-06-16T14:20:33.097Z,17.86
2018-06-16T14:23:00.965Z,18.49
2018-06-16T14:25:28.588Z,17.32
2018-06-16T14:27:56.342Z,15.82
2018-06-16T14:30:23.994Z,15.90
2018-06-16T14:32:51.969Z,15.14
2018-06-16T14:35:19.595Z,11.79
2018-06-16T14:37:47.323Z,10.02
2018-06-16T14:40:15.004Z,7.83
2018-06-16T14:42:42.571Z,6.44
2018-06-16T14:45:10.501Z,5.78
2018-06-16T14:47:38.101Z,5.58
2018-06-16T14:50:06.601Z,5.23
2018-06-16T14:52:34.238Z,6.85
2018-06-16T14:55:01.906Z,7.45
2018-06-16T14:57:29.590Z,9.74
2018-06-16T14:59:57.268Z,11.14
2018-06-16T15:02:24.916Z,12.12
2018-06-16T15:04:52.670Z,10.17
2018-06-16T15:07:20.325Z,7.06
2018-06-16T15:09:48.050Z,6.17
2018-06-16T15:12:15.750Z,5.85
2018-06-16T15:14:44.408Z,6.30
2018-06-16T15:17:12.000Z,7.43
2018-06-16T15:19:39.631Z,6.36
2018-06-16T15:22:07.362Z,7.49
2018-06-16T15:24:35.000Z,6.11
2018-06-16T15:27:02.876Z,5.15
2018-06-16T15:29:30.537Z,5.88
2018-06-16T15:31:58.231Z,5.51
2018-06-16T15:34:25.823Z,5.41
2018-06-16T15:36:53.497Z,4.56
2018-06-16T15:39:21.148Z,4.75
2018-06-16T15:41:48.809Z,5.03
2018-06-16T15:44:16.491Z,4.33
2018-06-16T15:46:44.241Z,3.40
2018-06-16T15:49:12.873Z,3.89
2018-06-16T15:51:40.571Z,4.18
2018-06-16T15:54:08.446Z,3.81
2018-06-16T15:56:36.071Z,4.16
2018-06-16T15:59:03.715Z,4.42
2018-06-16T16:01:31.387Z,4.75
2018-06-16T16:03:59.046Z,5.57
2018-06-16T16:06:26.868Z,7.58
2018-06-16T16:08:54.535Z,9.29
2018-06-16T16:11:22.110Z,10.38
2018-06-16T16:13:49.894Z,11.25
2018-06-16T16:16:17.519Z,11.31
2018-06-16T16:18:45.221Z,12.49
2018-06-16T16:21:12.860Z,12.68
2018-06-16T16:23:40.780Z,13.53
2018-06-16T16:26:08.430Z,13.79
2018-06-16T16:28:36.074Z,13.61
2018-06-16T16:31:03.742Z,14.26
2018-06-16T16:33:31.379Z,15.10
2018-06-16T16:35:59.001Z,15.58
2018-06-16T16:38:26.598Z,14.14
2018-06-16T16:40:54.177Z,13.13
2018-06-16T16:43:21.786Z,11.54
2018-06-16T16:45:49.421Z,11.92
2018-06-16T16:48:17.083Z,13.70
2018-06-16T16:50:44.873Z,14.90
2018-06-16T16:53:12.555Z,16.60
2018-06-16T16:55:40.113Z,18.56
2018-06-16T16:58:07.670Z,18.53
2018-06-16T17:00:35.229Z,18.21
2018-06-16T17:03:02.860Z,19.96
2018-06-16T17:05:30.410Z,19.72
2018-06-16T17:07:58.010Z,20.42
2018-06-16T17:10:30.053Z,20.40
2018-06-16T17:12:57.880Z,21.59
2018-06-16T17:15:25.514Z,21.34
2018-06-16T17:17:53.126Z,21.32
2018-06-16T17:20:21.194Z,21.65
2018-06-16T17:22:48.794Z,22.89
2018-06-16T17:25:16.476Z,23.96
2018-06-16T17:27:44.186Z,23.78
2018-06-16T17:30:11.782Z,23.24
2018-06-16T17:32:39.462Z,23.84
2018-06-16T17:35:07.072Z,25.94
2018-06-16T17:37:34.710Z,26.98
2018-06-16T17:40:02.411Z,27.31
2018-06-16T17:42:30.092Z,26.02
2018-06-16T17:44:57.900Z,28.60
2018-06-16T17:47:25.766Z,27.97
2018-06-16T17:49:53.635Z,28.29
2018-06-16T17:52:21.382Z,30.54
2018-06-16T17:54:49.005Z,29.99
2018-06-16T17:57:16.813Z,30.76
2018-06-16T17:59:44.438Z,30.72
2018-06-16T18:02:12.015Z,32.57
2018-06-16T18:04:39.706Z,32.55
2018-06-16T18:07:07.364Z,30.52
2018-06-16T18:09:35.050Z,30.10
2018-06-16T18:12:02.887Z,31.44
2018-06-16T18:14:30.571Z,31.63
2018-06-16T18:16:58.240Z,33.25
2018-06-16T18:19:25.916Z,33.34
2018-06-16T18:21:53.520Z,33.90
2018-06-16T18:24:21.150Z,34.06
2018-06-16T18:26:48.822Z,34.01
2018-06-16T18:29:16.490Z,34.30
2018-06-16T18:31:44.139Z,34.85
2018-06-16T18:34:11.813Z,35.07
2018-06-16T18:36:39.477Z,35.72
2018-06-16T18:39:08.586Z,36.74
2018-06-16T18:41:36.485Z,37.24
2018-06-16T18:44:04.280Z,36.92
2018-06-16T18:46:31.991Z,38.17
2018-06-16T18:48:59.641Z,37.57
2018-06-16T18:51:27.331Z,38.63
2018-06-16T18:53:54.925Z,38.31
2018-06-16T18:56:22.575Z,39.42
2018-06-16T18:58:50.291Z,38.88
2018-06-16T19:01:17.927Z,39.19
2018-06-16T19:03:45.885Z,39.17
2018-06-16T19:06:13.609Z,39.87
2018-06-16T19:08:41.274Z,40.35
2018-06-16T19:11:08.930Z,40.12
2018-06-16T19:13:37.645Z,40.63
2018-06-16T19:16:05.617Z,40.21
2018-06-16T19:18:33.293Z,40.45
2018-06-16T19:21:01.027Z,41.64
2018-06-16T19:23:28.758Z,42.54
2018-06-16T19:25:56.414Z,42.63
2018-06-16T19:28:24.104Z,42.91
2018-06-16T19:30:51.774Z,43.04
2018-06-16T19:33:19.522Z,43.38
2018-06-16T19:35:47.193Z,43.24
2018-06-16T19:38:14.938Z,43.69
2018-06-16T19:40:42.652Z,44.39
2018-06-16T19:43:10.450Z,44.06
2018-06-16T19:45:38.128Z,43.68
2018-06-16T19:48:05.913Z,43.70
2018-06-16T19:50:33.658Z,43.68
2018-06-16T19:53:01.318Z,44.76
2018-06-16T19:55:29.014Z,46.31
2018-06-16T19:57:56.648Z,45.06
2018-06-16T20:00:24.246Z,45.93
2018-06-16T20:02:51.849Z,45.37
2018-06-16T20:05:19.543Z,45.87
2018-06-16T20:10:15.435Z,46.46
2018-06-16T20:12:43.035Z,46.71
2018-06-16T20:15:10.685Z,46.94
2018-06-16T20:17:38.418Z,46.96
2018-06-16T20:20:06.957Z,46.55
2018-06-16T20:22:34.736Z,46.52
2018-06-16T20:25:02.355Z,47.56
2018-06-16T20:27:29.956Z,47.22
2018-06-16T20:29:57.656Z,47.71
2018-06-16T20:32:25.325Z,48.35
2018-06-16T20:34:52.970Z,47.38
2018-06-16T20:37:20.670Z,49.10
2018-06-16T20:39:48.528Z,49.66
2018-06-16T20:42:16.149Z,49.30
2018-06-16T20:44:44.506Z,48.72
2018-06-16T20:47:12.148Z,49.29
2018-06-16T20:49:39.830Z,50.23
2018-06-16T20:52:07.623Z,50.46
2018-06-16T20:54:35.258Z,50.48
2018-06-16T20:57:02.906Z,50.75
2018-06-16T20:59:30.580Z,51.07
2018-06-16T21:01:58.455Z,50.35
2018-06-16T21:04:26.080Z,52.79
2018-06-16T21:06:53.748Z,51.82
2018-06-16T21:09:21.395Z,52.66
2018-06-16T21:11:49.026Z,51.25
2018-06-16T21:14:17.594Z,52.90
2018-06-16T21:16:45.217Z,52.73
2018-06-16T21:19:12.863Z,53.74
2018-06-16T21:21:40.543Z,52.95
2018-06-16T21:24:08.175Z,53.32
2018-06-16T21:26:35.856Z,53.76
2018-06-16T21:29:03.636Z,53.97
2018-06-16T21:31:31.244Z,53.80
2018-06-16T21:33:58.918Z,54.73
2018-06-16T21:36:26.544Z,54.82
2018-06-16T21:38:54.116Z,55.37
2018-06-16T21:41:21.736Z,55.58
2018-06-16T21:43:49.397Z,55.08
2018-06-16T21:46:18.039Z,55.48
2018-06-16T21:48:45.687Z,55.99
2018-06-16T21:51:14.127Z,55.15
2018-06-16T21:53:41.763Z,55.03
2018-06-16T21:56:09.406Z,53.06
2018-06-16T21:58:37.295Z,52.41
2018-06-16T22:01:05.162Z,51.61
2018-06-16T22:03:32.781Z,51.53
2018-06-16T22:06:01.507Z,52.05
2018-06-16T22:08:30.889Z,52.07
2018-06-16T22:10:59.251Z,52.45
2018-06-16T22:13:27.332Z,52.67
2018-06-16T22:15:54.952Z,52.75
2018-06-16T22:18:22.644Z,53.29
2018-06-16T22:20:50.267Z,52.12
2018-06-16T22:23:17.943Z,52.57
2018-06-16T22:25:45.620Z,53.16
2018-06-16T22:28:13.385Z,53.37
2018-06-16T22:30:41.064Z,53.88
2018-06-16T22:33:08.650Z,53.86
2018-06-16T22:35:36.353Z,52.81
2018-06-16T22:38:04.311Z,51.98
2018-06-16T22:40:32.007Z,51.70
2018-06-16T22:42:59.649Z,51.04
2018-06-16T22:45:27.239Z,51.36
2018-06-16T22:47:54.838Z,51.68
2018-06-16T22:50:22.449Z,51.04
2018-06-16T22:52:50.618Z,51.47
2018-06-16T22:55:18.263Z,52.18
2018-06-16T22:57:45.933Z,51.64
2018-06-16T23:00:20.627Z,51.93
2018-06-16T23:02:48.455Z,52.66
2018-06-16T23:05:16.183Z,52.36
2018-06-16T23:07:43.785Z,52.39
2018-06-16T23:10:11.432Z,52.49
2018-06-16T23:12:39.049Z,52.05
2018-06-16T23:15:06.701Z,52.20
2018-06-16T23:17:34.257Z,51.94
2018-06-16T23:20:02.094Z,51.74
2018-06-16T23:22:29.715Z,51.47
2018-06-16T23:24:57.352Z,52.16
2018-06-16T23:27:24.971Z,52.78
2018-06-16T23:29:52.616Z,52.52
2018-06-16T23:32:20.242Z,52.63
2018-06-16T23:34:47.830Z,52.16
2018-06-16T23:37:15.488Z,51.62
2018-06-16T23:39:43.124Z,51.46
2018-06-16T23:42:10.742Z,51.83
2018-06-16T23:44:38.439Z,51.74
2018-06-16T23:47:06.136Z,52.01
2018-06-16T23:49:33.811Z,52.81
2018-06-16T23:52:01.432Z,52.19
2018-06-16T23:54:29.329Z,52.71
2018-06-16T23:56:56.976Z,53.49
2018-06-16T23:59:24.773Z,53.25
